sensor_id;sensor_type;location;lat;lon;timestamp;P1;durP1;ratioP1;P2;durP2;ratioP2
846;SDS011;410;48.954;9.474;2023-04-24T00:01:53;4.90;;;1.20;;
846;SDS011;410;48.954;9.474;2023-04-24T00:03:56;2.10;;;1.10;;
846;SDS011;410;48.954;9.474;2023-04-24T00:06:01;2.80;;;1.20;;
846;SDS011;410;48.954;9.474;2023-04-24T00:08:04;1.70;;;1.20;;
846;SDS011;410;48.954;9.474;2023-04-24T00:10:07;2.47;;;1.47;;
846;SDS011;410;48.954;9.474;2023-04-24T00:12:11;4.30;;;1.60;;
846;SDS011;410;48.954;9.474;2023-04-24T00:14:15;3.73;;;1.70;;
846;SDS011;410;48.954;9.474;2023-04-24T00:16:18;2.23;;;1.20;;
846;SDS011;410;48.954;9.474;2023-04-24T00:18:21;2.33;;;1.50;;
846;SDS011;410;48.954;9.474;2023-04-24T00:20:24;3.73;;;2.50;;
846;SDS011;410;48.954;9.474;2023-04-24T00:22:28;3.83;;;2.40;;
846;SDS011;410;48.954;9.474;2023-04-24T00:24:31;2.83;;;1.90;;
846;SDS011;410;48.954;9.474;2023-04-24T00:26:34;2.87;;;1.50;;
846;SDS011;410;48.954;9.474;2023-04-24T00:28:37;4.60;;;2.83;;
846;SDS011;410;48.954;9.474;2023-04-24T00:30:42;1.63;;;1.27;;
846;SDS011;410;48.954;9.474;2023-04-24T00:32:45;3.30;;;1.87;;
846;SDS011;410;48.954;9.474;2023-04-24T00:34:48;4.20;;;1.60;;
846;SDS011;410;48.954;9.474;2023-04-24T00:36:51;4.43;;;1.80;;
846;SDS011;410;48.954;9.474;2023-04-24T00:38:54;2.80;;;1.40;;
846;SDS011;410;48.954;9.474;2023-04-24T00:40:57;2.70;;;1.60;;
846;SDS011;410;48.954;9.474;2023-04-24T00:43:01;2.20;;;1.60;;
846;SDS011;410;48.954;9.474;2023-04-24T00:45:05;2.90;;;1.43;;
846;SDS011;410;48.954;9.474;2023-04-24T00:47:10;5.30;;;1.70;;
846;SDS011;410;48.954;9.474;2023-04-24T00:49:14;2.73;;;1.77;;
846;SDS011;410;48.954;9.474;2023-04-24T00:51:17;1.80;;;1.37;;
846;SDS011;410;48.954;9.474;2023-04-24T00:53:21;2.43;;;1.60;;
846;SDS011;410;48.954;9.474;2023-04-24T00:55:24;3.33;;;1.73;;
846;SDS011;410;48.954;9.474;2023-04-24T00:57:28;2.90;;;1.47;;
846;SDS011;410;48.954;9.474;2023-04-24T00:59:31;1.97;;;1.47;;
846;SDS011;410;48.954;9.474;2023-04-24T01:01:34;1.80;;;1.10;;
846;SDS011;410;48.954;9.474;2023-04-24T01:03:40;2.43;;;1.40;;
846;SDS011;410;48.954;9.474;2023-04-24T01:05:44;4.00;;;1.70;;
846;SDS011;410;48.954;9.474;2023-04-24T01:07:47;2.20;;;0.97;;
846;SDS011;410;48.954;9.474;2023-04-24T01:09:50;2.70;;;1.63;;
846;SDS011;410;48.954;9.474;2023-04-24T01:11:53;2.27;;;1.40;;
846;SDS011;410;48.954;9.474;2023-04-24T01:13:58;2.43;;;1.30;;
846;SDS011;410;48.954;9.474;2023-04-24T01:16:01;3.17;;;1.33;;
846;SDS011;410;48.954;9.474;2023-04-24T01:18:04;2.47;;;1.30;;
846;SDS011;410;48.954;9.474;2023-04-24T01:20:09;1.60;;;1.20;;
846;SDS011;410;48.954;9.474;2023-04-24T01:22:16;1.97;;;1.17;;
846;SDS011;410;48.954;9.474;2023-04-24T01:24:20;2.40;;;1.50;;
846;SDS011;410;48.954;9.474;2023-04-24T01:26:23;1.97;;;1.33;;
846;SDS011;410;48.954;9.474;2023-04-24T01:28:27;2.17;;;1.17;;
846;SDS011;410;48.954;9.474;2023-04-24T01:30:30;2.30;;;1.20;;
846;SDS011;410;48.954;9.474;2023-04-24T01:32:33;2.57;;;1.47;;
846;SDS011;410;48.954;9.474;2023-04-24T01:34:37;3.40;;;1.47;;
846;SDS011;410;48.954;9.474;2023-04-24T01:36:40;4.60;;;1.43;;
846;SDS011;410;48.954;9.474;2023-04-24T01:38:45;2.17;;;1.23;;
846;SDS011;410;48.954;9.474;2023-04-24T01:40:48;3.07;;;1.10;;
846;SDS011;410;48.954;9.474;2023-04-24T01:42:52;2.77;;;1.30;;
846;SDS011;410;48.954;9.474;2023-04-24T01:44:55;3.10;;;1.67;;
846;SDS011;410;48.954;9.474;2023-04-24T01:47:00;2.80;;;1.10;;
846;SDS011;410;48.954;9.474;2023-04-24T01:49:04;2.30;;;1.23;;
846;SDS011;410;48.954;9.474;2023-04-24T01:51:07;1.80;;;1.20;;
846;SDS011;410;48.954;9.474;2023-04-24T01:53:11;1.40;;;0.90;;
846;SDS011;410;48.954;9.474;2023-04-24T01:55:16;2.50;;;1.10;;
846;SDS011;410;48.954;9.474;2023-04-24T01:57:19;1.83;;;1.20;;
846;SDS011;410;48.954;9.474;2023-04-24T01:59:22;3.03;;;1.10;;
846;SDS011;410;48.954;9.474;2023-04-24T02:01:26;2.90;;;1.60;;
846;SDS011;410;48.954;9.474;2023-04-24T02:03:29;2.27;;;1.03;;
846;SDS011;410;48.954;9.474;2023-04-24T02:05:33;2.73;;;1.10;;
846;SDS011;410;48.954;9.474;2023-04-24T02:07:37;1.93;;;1.10;;
846;SDS011;410;48.954;9.474;2023-04-24T02:09:40;3.60;;;1.30;;
846;SDS011;410;48.954;9.474;2023-04-24T02:11:45;2.53;;;1.47;;
846;SDS011;410;48.954;9.474;2023-04-24T02:13:48;2.97;;;1.20;;
846;SDS011;410;48.954;9.474;2023-04-24T02:15:51;1.90;;;1.20;;
846;SDS011;410;48.954;9.474;2023-04-24T02:17:55;1.50;;;0.90;;
846;SDS011;410;48.954;9.474;2023-04-24T02:19:58;2.67;;;1.10;;
846;SDS011;410;48.954;9.474;2023-04-24T02:22:01;3.23;;;1.00;;
846;SDS011;410;48.954;9.474;2023-04-24T02:24:04;2.60;;;0.93;;
846;SDS011;410;48.954;9.474;2023-04-24T02:26:07;5.77;;;1.50;;
846;SDS011;410;48.954;9.474;2023-04-24T02:28:12;3.23;;;1.80;;
846;SDS011;410;48.954;9.474;2023-04-24T02:30:15;1.93;;;1.10;;
846;SDS011;410;48.954;9.474;2023-04-24T02:32:19;1.77;;;0.93;;
846;SDS011;410;48.954;9.474;2023-04-24T02:34:22;2.80;;;1.30;;
846;SDS011;410;48.954;9.474;2023-04-24T02:36:25;2.70;;;1.20;;
846;SDS011;410;48.954;9.474;2023-04-24T02:38:28;1.63;;;1.20;;
846;SDS011;410;48.954;9.474;2023-04-24T02:40:31;3.30;;;1.10;;
846;SDS011;410;48.954;9.474;2023-04-24T02:42:34;3.00;;;1.20;;
846;SDS011;410;48.954;9.474;2023-04-24T02:44:39;2.50;;;1.20;;
846;SDS011;410;48.954;9.474;2023-04-24T02:46:42;3.03;;;1.30;;
846;SDS011;410;48.954;9.474;2023-04-24T02:48:46;2.17;;;1.13;;
846;SDS011;410;48.954;9.474;2023-04-24T02:50:49;2.80;;;1.23;;
846;SDS011;410;48.954;9.474;2023-04-24T02:52:53;1.70;;;1.10;;
846;SDS011;410;48.954;9.474;2023-04-24T02:54:56;4.20;;;1.33;;
846;SDS011;410;48.954;9.474;2023-04-24T02:56:59;2.17;;;1.40;;
846;SDS011;410;48.954;9.474;2023-04-24T02:59:02;2.33;;;1.27;;
846;SDS011;410;48.954;9.474;2023-04-24T03:01:07;3.63;;;1.23;;
846;SDS011;410;48.954;9.474;2023-04-24T03:03:11;2.87;;;1.30;;
846;SDS011;410;48.954;9.474;2023-04-24T03:05:15;3.87;;;1.03;;
846;SDS011;410;48.954;9.474;2023-04-24T03:07:18;2.10;;;1.20;;
846;SDS011;410;48.954;9.474;2023-04-24T03:09:22;4.00;;;1.10;;
846;SDS011;410;48.954;9.474;2023-04-24T03:11:25;2.27;;;1.47;;
846;SDS011;410;48.954;9.474;2023-04-24T03:13:28;2.33;;;1.10;;
846;SDS011;410;48.954;9.474;2023-04-24T03:15:31;3.97;;;1.93;;
846;SDS011;410;48.954;9.474;2023-04-24T03:17:36;2.30;;;1.10;;
846;SDS011;410;48.954;9.474;2023-04-24T03:19:39;1.90;;;1.10;;
846;SDS011;410;48.954;9.474;2023-04-24T03:21:44;2.70;;;1.10;;
846;SDS011;410;48.954;9.474;2023-04-24T03:23:47;3.30;;;1.40;;
846;SDS011;410;48.954;9.474;2023-04-24T03:25:51;1.47;;;1.10;;
846;SDS011;410;48.954;9.474;2023-04-24T03:27:54;3.30;;;1.30;;
846;SDS011;410;48.954;9.474;2023-04-24T03:30:06;1.97;;;1.10;;
846;SDS011;410;48.954;9.474;2023-04-24T03:32:18;1.80;;;1.20;;
846;SDS011;410;48.954;9.474;2023-04-24T03:34:23;2.27;;;1.13;;
846;SDS011;410;48.954;9.474;2023-04-24T03:36:26;3.93;;;1.20;;
846;SDS011;410;48.954;9.474;2023-04-24T03:38:30;3.80;;;1.20;;
846;SDS011;410;48.954;9.474;2023-04-24T03:40:37;2.63;;;1.40;;
846;SDS011;410;48.954;9.474;2023-04-24T03:42:50;2.37;;;1.03;;
846;SDS011;410;48.954;9.474;2023-04-24T03:44:54;1.60;;;1.17;;
846;SDS011;410;48.954;9.474;2023-04-24T03:47:02;2.43;;;1.20;;
846;SDS011;410;48.954;9.474;2023-04-24T03:49:05;2.50;;;1.20;;
846;SDS011;410;48.954;9.474;2023-04-24T03:51:13;2.00;;;1.13;;
846;SDS011;410;48.954;9.474;2023-04-24T03:53:20;2.17;;;1.50;;
846;SDS011;410;48.954;9.474;2023-04-24T03:55:24;3.20;;;1.00;;
846;SDS011;410;48.954;9.474;2023-04-24T03:57:27;2.30;;;1.27;;
846;SDS011;410;48.954;9.474;2023-04-24T03:59:42;2.60;;;1.23;;
846;SDS011;410;48.954;9.474;2023-04-24T04:01:51;3.30;;;1.40;;
846;SDS011;410;48.954;9.474;2023-04-24T04:03:54;2.20;;;1.23;;
846;SDS011;410;48.954;9.474;2023-04-24T04:05:59;3.30;;;1.50;;
846;SDS011;410;48.954;9.474;2023-04-24T04:08:04;2.13;;;1.03;;
846;SDS011;410;48.954;9.474;2023-04-24T04:10:07;3.00;;;1.10;;
846;SDS011;410;48.954;9.474;2023-04-24T04:12:11;1.60;;;1.10;;
846;SDS011;410;48.954;9.474;2023-04-24T04:14:15;1.73;;;1.00;;
846;SDS011;410;48.954;9.474;2023-04-24T04:16:21;1.70;;;0.90;;
846;SDS011;410;48.954;9.474;2023-04-24T04:18:29;1.80;;;1.00;;
846;SDS011;410;48.954;9.474;2023-04-24T04:20:32;1.70;;;1.10;;
846;SDS011;410;48.954;9.474;2023-04-24T04:22:35;1.80;;;0.90;;
846;SDS011;410;48.954;9.474;2023-04-24T04:24:43;3.87;;;1.10;;
846;SDS011;410;48.954;9.474;2023-04-24T04:26:49;1.50;;;0.93;;
846;SDS011;410;48.954;9.474;2023-04-24T04:29:03;1.40;;;1.00;;
846;SDS011;410;48.954;9.474;2023-04-24T04:31:11;1.70;;;0.90;;
846;SDS011;410;48.954;9.474;2023-04-24T04:33:14;2.30;;;1.17;;
846;SDS011;410;48.954;9.474;2023-04-24T04:35:18;2.37;;;1.20;;
846;SDS011;410;48.954;9.474;2023-04-24T04:37:24;3.80;;;1.20;;
846;SDS011;410;48.954;9.474;2023-04-24T04:39:40;2.90;;;1.10;;
846;SDS011;410;48.954;9.474;2023-04-24T04:41:51;1.87;;;0.90;;
846;SDS011;410;48.954;9.474;2023-04-24T04:43:57;2.17;;;1.00;;
846;SDS011;410;48.954;9.474;2023-04-24T04:46:00;2.60;;;1.10;;
846;SDS011;410;48.954;9.474;2023-04-24T04:48:29;2.20;;;1.00;;
846;SDS011;410;48.954;9.474;2023-04-24T04:50:35;1.77;;;1.00;;
846;SDS011;410;48.954;9.474;2023-04-24T04:52:41;3.93;;;0.93;;
846;SDS011;410;48.954;9.474;2023-04-24T04:54:53;4.00;;;0.90;;
846;SDS011;410;48.954;9.474;2023-04-24T04:57:05;2.60;;;1.20;;
846;SDS011;410;48.954;9.474;2023-04-24T04:59:10;3.10;;;1.10;;
846;SDS011;410;48.954;9.474;2023-04-24T05:01:14;2.47;;;1.00;;
846;SDS011;410;48.954;9.474;2023-04-24T05:03:20;2.30;;;1.20;;
846;SDS011;410;48.954;9.474;2023-04-24T05:05:34;1.73;;;1.00;;
846;SDS011;410;48.954;9.474;2023-04-24T05:07:45;2.57;;;1.30;;
846;SDS011;410;48.954;9.474;2023-04-24T05:09:48;2.07;;;1.20;;
846;SDS011;410;48.954;9.474;2023-04-24T05:11:53;1.67;;;1.30;;
846;SDS011;410;48.954;9.474;2023-04-24T05:13:59;3.23;;;1.20;;
846;SDS011;410;48.954;9.474;2023-04-24T05:16:13;2.67;;;1.40;;
846;SDS011;410;48.954;9.474;2023-04-24T05:18:17;2.37;;;1.60;;
846;SDS011;410;48.954;9.474;2023-04-24T05:20:20;3.13;;;1.30;;
846;SDS011;410;48.954;9.474;2023-04-24T05:22:24;4.30;;;1.33;;
846;SDS011;410;48.954;9.474;2023-04-24T05:24:27;1.80;;;1.40;;
846;SDS011;410;48.954;9.474;2023-04-24T05:26:54;1.47;;;1.17;;
846;SDS011;410;48.954;9.474;2023-04-24T05:29:04;3.93;;;1.47;;
846;SDS011;410;48.954;9.474;2023-04-24T05:31:07;2.07;;;1.50;;
846;SDS011;410;48.954;9.474;2023-04-24T05:33:11;3.70;;;1.40;;
846;SDS011;410;48.954;9.474;2023-04-24T05:35:15;2.93;;;1.43;;
846;SDS011;410;48.954;9.474;2023-04-24T05:37:20;2.53;;;1.70;;
846;SDS011;410;48.954;9.474;2023-04-24T05:39:23;2.33;;;1.80;;
846;SDS011;410;48.954;9.474;2023-04-24T05:41:28;2.67;;;1.80;;
846;SDS011;410;48.954;9.474;2023-04-24T05:43:31;2.40;;;2.00;;
846;SDS011;410;48.954;9.474;2023-04-24T05:45:35;1.93;;;1.50;;
846;SDS011;410;48.954;9.474;2023-04-24T05:47:39;2.00;;;1.43;;
846;SDS011;410;48.954;9.474;2023-04-24T05:49:42;2.70;;;1.60;;
846;SDS011;410;48.954;9.474;2023-04-24T05:51:45;2.60;;;1.70;;
846;SDS011;410;48.954;9.474;2023-04-24T05:53:50;2.47;;;1.87;;
846;SDS011;410;48.954;9.474;2023-04-24T05:55:56;2.67;;;1.60;;
846;SDS011;410;48.954;9.474;2023-04-24T05:57:59;2.43;;;1.87;;
846;SDS011;410;48.954;9.474;2023-04-24T06:00:03;2.57;;;1.80;;
846;SDS011;410;48.954;9.474;2023-04-24T06:02:23;2.53;;;2.30;;
846;SDS011;410;48.954;9.474;2023-04-24T06:04:28;4.10;;;2.10;;
846;SDS011;410;48.954;9.474;2023-04-24T06:06:33;3.00;;;2.20;;
846;SDS011;410;48.954;9.474;2023-04-24T06:08:37;3.33;;;2.20;;
846;SDS011;410;48.954;9.474;2023-04-24T06:10:40;3.30;;;2.27;;
846;SDS011;410;48.954;9.474;2023-04-24T06:12:44;3.37;;;2.10;;
846;SDS011;410;48.954;9.474;2023-04-24T06:14:51;4.50;;;2.40;;
846;SDS011;410;48.954;9.474;2023-04-24T06:16:59;2.83;;;2.30;;
846;SDS011;410;48.954;9.474;2023-04-24T06:19:10;3.00;;;2.60;;
846;SDS011;410;48.954;9.474;2023-04-24T06:21:14;3.43;;;2.90;;
846;SDS011;410;48.954;9.474;2023-04-24T06:23:19;3.73;;;2.73;;
846;SDS011;410;48.954;9.474;2023-04-24T06:25:24;3.63;;;2.60;;
846;SDS011;410;48.954;9.474;2023-04-24T06:27:27;3.60;;;2.97;;
846;SDS011;410;48.954;9.474;2023-04-24T06:29:30;5.17;;;2.40;;
846;SDS011;410;48.954;9.474;2023-04-24T06:31:34;3.60;;;3.00;;
846;SDS011;410;48.954;9.474;2023-04-24T06:33:38;4.60;;;3.00;;
846;SDS011;410;48.954;9.474;2023-04-24T06:35:45;5.17;;;2.60;;
846;SDS011;410;48.954;9.474;2023-04-24T06:37:48;3.50;;;3.00;;
846;SDS011;410;48.954;9.474;2023-04-24T06:39:51;4.37;;;2.73;;
846;SDS011;410;48.954;9.474;2023-04-24T06:41:54;5.87;;;3.20;;
846;SDS011;410;48.954;9.474;2023-04-24T06:43:58;4.10;;;3.10;;
846;SDS011;410;48.954;9.474;2023-04-24T06:46:01;4.47;;;4.07;;
846;SDS011;410;48.954;9.474;2023-04-24T06:48:05;3.60;;;3.00;;
846;SDS011;410;48.954;9.474;2023-04-24T06:50:08;8.77;;;3.20;;
846;SDS011;410;48.954;9.474;2023-04-24T06:52:14;4.00;;;2.90;;
846;SDS011;410;48.954;9.474;2023-04-24T06:54:17;4.17;;;3.30;;
846;SDS011;410;48.954;9.474;2023-04-24T06:56:20;6.50;;;3.17;;
846;SDS011;410;48.954;9.474;2023-04-24T06:58:24;4.50;;;3.10;;
846;SDS011;410;48.954;9.474;2023-04-24T07:00:27;4.13;;;3.10;;
846;SDS011;410;48.954;9.474;2023-04-24T07:02:31;6.70;;;3.47;;
846;SDS011;410;48.954;9.474;2023-04-24T07:04:34;5.20;;;3.80;;
846;SDS011;410;48.954;9.474;2023-04-24T07:06:38;4.40;;;3.30;;
846;SDS011;410;48.954;9.474;2023-04-24T07:08:43;4.50;;;3.10;;
846;SDS011;410;48.954;9.474;2023-04-24T07:10:46;3.60;;;3.30;;
846;SDS011;410;48.954;9.474;2023-04-24T07:12:49;3.70;;;2.70;;
846;SDS011;410;48.954;9.474;2023-04-24T07:14:53;7.00;;;2.83;;
846;SDS011;410;48.954;9.474;2023-04-24T07:16:56;3.10;;;2.80;;
846;SDS011;410;48.954;9.474;2023-04-24T07:19:00;4.70;;;3.43;;
846;SDS011;410;48.954;9.474;2023-04-24T07:21:03;4.10;;;2.97;;
846;SDS011;410;48.954;9.474;2023-04-24T07:23:06;3.90;;;3.00;;
846;SDS011;410;48.954;9.474;2023-04-24T07:25:11;5.33;;;3.00;;
846;SDS011;410;48.954;9.474;2023-04-24T07:27:14;3.07;;;2.77;;
846;SDS011;410;48.954;9.474;2023-04-24T07:29:18;3.50;;;2.70;;
846;SDS011;410;48.954;9.474;2023-04-24T07:31:21;6.60;;;2.93;;
846;SDS011;410;48.954;9.474;2023-04-24T07:33:24;3.93;;;2.90;;
846;SDS011;410;48.954;9.474;2023-04-24T07:35:28;3.20;;;2.90;;
846;SDS011;410;48.954;9.474;2023-04-24T07:37:31;4.60;;;3.17;;
846;SDS011;410;48.954;9.474;2023-04-24T07:39:34;4.40;;;3.23;;
846;SDS011;410;48.954;9.474;2023-04-24T07:41:39;5.67;;;3.87;;
846;SDS011;410;48.954;9.474;2023-04-24T07:43:42;3.63;;;3.00;;
846;SDS011;410;48.954;9.474;2023-04-24T07:45:45;4.33;;;3.17;;
846;SDS011;410;48.954;9.474;2023-04-24T07:47:49;5.63;;;3.10;;
846;SDS011;410;48.954;9.474;2023-04-24T07:49:53;4.77;;;3.00;;
846;SDS011;410;48.954;9.474;2023-04-24T07:51:56;5.73;;;3.80;;
846;SDS011;410;48.954;9.474;2023-04-24T07:54:02;4.23;;;2.73;;
846;SDS011;410;48.954;9.474;2023-04-24T07:56:05;3.73;;;3.33;;
846;SDS011;410;48.954;9.474;2023-04-24T07:58:10;3.27;;;2.77;;
846;SDS011;410;48.954;9.474;2023-04-24T08:00:13;3.63;;;2.93;;
846;SDS011;410;48.954;9.474;2023-04-24T08:02:17;3.70;;;2.60;;
846;SDS011;410;48.954;9.474;2023-04-24T08:04:20;3.57;;;2.60;;
846;SDS011;410;48.954;9.474;2023-04-24T08:06:23;5.60;;;2.87;;
846;SDS011;410;48.954;9.474;2023-04-24T08:08:29;3.90;;;2.47;;
846;SDS011;410;48.954;9.474;2023-04-24T08:10:32;4.23;;;3.07;;
846;SDS011;410;48.954;9.474;2023-04-24T08:12:35;3.40;;;2.37;;
846;SDS011;410;48.954;9.474;2023-04-24T08:14:40;3.83;;;2.47;;
846;SDS011;410;48.954;9.474;2023-04-24T08:16:44;4.23;;;2.93;;
846;SDS011;410;48.954;9.474;2023-04-24T08:18:47;6.80;;;2.97;;
846;SDS011;410;48.954;9.474;2023-04-24T08:20:52;2.77;;;2.33;;
846;SDS011;410;48.954;9.474;2023-04-24T08:22:55;4.30;;;3.00;;
846;SDS011;410;48.954;9.474;2023-04-24T08:24:59;4.57;;;2.77;;
846;SDS011;410;48.954;9.474;2023-04-24T08:27:03;3.73;;;2.90;;
846;SDS011;410;48.954;9.474;2023-04-24T08:29:06;5.23;;;2.67;;
846;SDS011;410;48.954;9.474;2023-04-24T08:31:11;2.90;;;2.20;;
846;SDS011;410;48.954;9.474;2023-04-24T08:33:14;2.93;;;2.40;;
846;SDS011;410;48.954;9.474;2023-04-24T08:35:17;2.37;;;2.10;;
846;SDS011;410;48.954;9.474;2023-04-24T08:37:21;4.50;;;1.83;;
846;SDS011;410;48.954;9.474;2023-04-24T08:39:24;2.70;;;2.27;;
846;SDS011;410;48.954;9.474;2023-04-24T08:41:27;2.60;;;2.10;;
846;SDS011;410;48.954;9.474;2023-04-24T08:43:30;4.90;;;2.90;;
846;SDS011;410;48.954;9.474;2023-04-24T08:45:36;7.40;;;2.30;;
846;SDS011;410;48.954;9.474;2023-04-24T08:47:41;2.93;;;1.93;;
846;SDS011;410;48.954;9.474;2023-04-24T08:49:46;5.47;;;2.00;;
846;SDS011;410;48.954;9.474;2023-04-24T08:51:51;3.23;;;2.07;;
846;SDS011;410;48.954;9.474;2023-04-24T08:53:55;2.70;;;1.77;;
846;SDS011;410;48.954;9.474;2023-04-24T08:55:59;3.53;;;2.60;;
846;SDS011;410;48.954;9.474;2023-04-24T08:58:03;2.67;;;1.90;;
846;SDS011;410;48.954;9.474;2023-04-24T09:00:08;3.23;;;2.03;;
846;SDS011;410;48.954;9.474;2023-04-24T09:02:13;4.23;;;2.00;;
846;SDS011;410;48.954;9.474;2023-04-24T09:04:18;3.33;;;1.80;;
846;SDS011;410;48.954;9.474;2023-04-24T09:06:23;3.17;;;1.40;;
846;SDS011;410;48.954;9.474;2023-04-24T09:08:28;4.00;;;2.30;;
846;SDS011;410;48.954;9.474;2023-04-24T09:10:31;2.13;;;1.80;;
846;SDS011;410;48.954;9.474;2023-04-24T09:12:34;2.90;;;1.67;;
846;SDS011;410;48.954;9.474;2023-04-24T09:14:37;2.13;;;1.90;;
846;SDS011;410;48.954;9.474;2023-04-24T09:16:44;2.30;;;2.03;;
846;SDS011;410;48.954;9.474;2023-04-24T09:18:48;3.83;;;2.30;;
846;SDS011;410;48.954;9.474;2023-04-24T09:20:58;2.90;;;1.77;;
846;SDS011;410;48.954;9.474;2023-04-24T09:23:02;3.00;;;2.00;;
846;SDS011;410;48.954;9.474;2023-04-24T09:25:06;4.33;;;1.80;;
846;SDS011;410;48.954;9.474;2023-04-24T09:27:10;2.90;;;1.93;;
846;SDS011;410;48.954;9.474;2023-04-24T09:29:14;3.60;;;1.87;;
846;SDS011;410;48.954;9.474;2023-04-24T09:31:18;2.60;;;2.27;;
846;SDS011;410;48.954;9.474;2023-04-24T09:33:23;2.13;;;1.90;;
846;SDS011;410;48.954;9.474;2023-04-24T09:35:26;5.13;;;2.00;;
846;SDS011;410;48.954;9.474;2023-04-24T09:37:34;4.30;;;2.50;;
846;SDS011;410;48.954;9.474;2023-04-24T09:39:38;3.30;;;2.27;;
846;SDS011;410;48.954;9.474;2023-04-24T09:41:43;2.50;;;1.90;;
846;SDS011;410;48.954;9.474;2023-04-24T09:43:47;3.43;;;1.93;;
846;SDS011;410;48.954;9.474;2023-04-24T09:45:50;2.20;;;1.90;;
846;SDS011;410;48.954;9.474;2023-04-24T09:47:58;4.80;;;2.27;;
846;SDS011;410;48.954;9.474;2023-04-24T09:50:08;3.57;;;2.17;;
846;SDS011;410;48.954;9.474;2023-04-24T09:52:12;5.77;;;2.30;;
846;SDS011;410;48.954;9.474;2023-04-24T09:54:17;4.47;;;2.57;;
846;SDS011;410;48.954;9.474;2023-04-24T09:56:22;3.73;;;2.30;;
846;SDS011;410;48.954;9.474;2023-04-24T09:58:29;3.20;;;2.00;;
846;SDS011;410;48.954;9.474;2023-04-24T10:00:32;4.07;;;2.43;;
846;SDS011;410;48.954;9.474;2023-04-24T10:02:35;2.63;;;1.67;;
846;SDS011;410;48.954;9.474;2023-04-24T10:04:39;1.80;;;1.47;;
846;SDS011;410;48.954;9.474;2023-04-24T10:06:42;3.00;;;1.80;;
846;SDS011;410;48.954;9.474;2023-04-24T10:08:46;2.20;;;1.90;;
846;SDS011;410;48.954;9.474;2023-04-24T10:10:50;1.90;;;1.50;;
846;SDS011;410;48.954;9.474;2023-04-24T10:12:54;2.30;;;1.40;;
846;SDS011;410;48.954;9.474;2023-04-24T10:14:57;2.20;;;1.50;;
846;SDS011;410;48.954;9.474;2023-04-24T10:17:01;2.73;;;1.60;;
846;SDS011;410;48.954;9.474;2023-04-24T10:19:04;2.37;;;1.60;;
846;SDS011;410;48.954;9.474;2023-04-24T10:21:07;2.43;;;1.57;;
846;SDS011;410;48.954;9.474;2023-04-24T10:23:10;2.90;;;1.67;;
846;SDS011;410;48.954;9.474;2023-04-24T10:25:13;2.17;;;1.70;;
846;SDS011;410;48.954;9.474;2023-04-24T10:27:18;2.83;;;1.73;;
846;SDS011;410;48.954;9.474;2023-04-24T10:29:23;2.40;;;1.70;;
846;SDS011;410;48.954;9.474;2023-04-24T10:31:28;3.13;;;1.90;;
846;SDS011;410;48.954;9.474;2023-04-24T10:33:34;2.63;;;1.80;;
846;SDS011;410;48.954;9.474;2023-04-24T10:35:42;2.93;;;1.90;;
846;SDS011;410;48.954;9.474;2023-04-24T10:37:50;2.43;;;1.80;;
846;SDS011;410;48.954;9.474;2023-04-24T10:39:55;2.83;;;1.90;;
846;SDS011;410;48.954;9.474;2023-04-24T10:41:58;2.37;;;1.87;;
846;SDS011;410;48.954;9.474;2023-04-24T10:44:05;2.80;;;2.00;;
846;SDS011;410;48.954;9.474;2023-04-24T10:46:09;3.33;;;1.93;;
846;SDS011;410;48.954;9.474;2023-04-24T10:48:14;2.20;;;1.90;;
846;SDS011;410;48.954;9.474;2023-04-24T10:50:17;3.47;;;2.10;;
846;SDS011;410;48.954;9.474;2023-04-24T10:52:21;4.27;;;2.07;;
846;SDS011;410;48.954;9.474;2023-04-24T10:54:25;3.30;;;2.50;;
846;SDS011;410;48.954;9.474;2023-04-24T10:56:29;3.40;;;2.07;;
846;SDS011;410;48.954;9.474;2023-04-24T10:58:35;3.13;;;2.40;;
846;SDS011;410;48.954;9.474;2023-04-24T11:00:41;2.73;;;2.17;;
846;SDS011;410;48.954;9.474;2023-04-24T11:02:46;3.53;;;1.93;;
846;SDS011;410;48.954;9.474;2023-04-24T11:04:54;4.03;;;2.43;;
846;SDS011;410;48.954;9.474;2023-04-24T11:06:59;2.63;;;2.10;;
846;SDS011;410;48.954;9.474;2023-04-24T11:09:03;2.50;;;2.30;;
846;SDS011;410;48.954;9.474;2023-04-24T11:11:08;3.57;;;2.70;;
846;SDS011;410;48.954;9.474;2023-04-24T11:13:14;6.87;;;4.20;;
846;SDS011;410;48.954;9.474;2023-04-24T11:15:17;3.70;;;2.53;;
846;SDS011;410;48.954;9.474;2023-04-24T11:17:28;3.30;;;2.10;;
846;SDS011;410;48.954;9.474;2023-04-24T11:19:33;2.87;;;2.57;;
846;SDS011;410;48.954;9.474;2023-04-24T11:21:39;4.40;;;2.60;;
846;SDS011;410;48.954;9.474;2023-04-24T11:23:44;3.20;;;2.50;;
846;SDS011;410;48.954;9.474;2023-04-24T11:25:52;4.30;;;2.60;;
846;SDS011;410;48.954;9.474;2023-04-24T11:28:14;3.20;;;2.90;;
846;SDS011;410;48.954;9.474;2023-04-24T11:30:19;3.60;;;2.70;;
846;SDS011;410;48.954;9.474;2023-04-24T11:32:23;4.20;;;2.70;;
846;SDS011;410;48.954;9.474;2023-04-24T11:34:29;2.80;;;2.43;;
846;SDS011;410;48.954;9.474;2023-04-24T11:36:34;5.57;;;2.50;;
846;SDS011;410;48.954;9.474;2023-04-24T11:38:38;2.70;;;2.13;;
846;SDS011;410;48.954;9.474;2023-04-24T11:40:41;3.17;;;2.57;;
846;SDS011;410;48.954;9.474;2023-04-24T11:42:46;4.23;;;2.30;;
846;SDS011;410;48.954;9.474;2023-04-24T11:44:51;4.73;;;2.20;;
846;SDS011;410;48.954;9.474;2023-04-24T11:46:55;4.00;;;2.10;;
846;SDS011;410;48.954;9.474;2023-04-24T11:48:59;3.20;;;2.30;;
846;SDS011;410;48.954;9.474;2023-04-24T11:51:03;4.07;;;2.40;;
846;SDS011;410;48.954;9.474;2023-04-24T11:53:07;4.03;;;2.23;;
846;SDS011;410;48.954;9.474;2023-04-24T11:55:22;3.37;;;2.37;;
846;SDS011;410;48.954;9.474;2023-04-24T11:57:27;3.57;;;2.40;;
846;SDS011;410;48.954;9.474;2023-04-24T11:59:35;2.93;;;2.63;;
846;SDS011;410;48.954;9.474;2023-04-24T12:01:42;3.10;;;2.70;;
846;SDS011;410;48.954;9.474;2023-04-24T12:03:49;3.70;;;3.07;;
846;SDS011;410;48.954;9.474;2023-04-24T12:06:05;2.90;;;2.60;;
846;SDS011;410;48.954;9.474;2023-04-24T12:08:09;3.77;;;2.73;;
846;SDS011;410;48.954;9.474;2023-04-24T12:10:12;2.87;;;2.50;;
846;SDS011;410;48.954;9.474;2023-04-24T12:12:16;3.00;;;2.47;;
846;SDS011;410;48.954;9.474;2023-04-24T12:14:20;3.30;;;2.50;;
846;SDS011;410;48.954;9.474;2023-04-24T12:16:23;4.17;;;3.17;;
846;SDS011;410;48.954;9.474;2023-04-24T12:18:27;4.20;;;2.77;;
846;SDS011;410;48.954;9.474;2023-04-24T12:20:30;3.10;;;2.40;;
846;SDS011;410;48.954;9.474;2023-04-24T12:22:45;3.10;;;2.80;;
846;SDS011;410;48.954;9.474;2023-04-24T12:24:58;3.80;;;2.50;;
846;SDS011;410;48.954;9.474;2023-04-24T12:27:03;3.53;;;2.83;;
846;SDS011;410;48.954;9.474;2023-04-24T12:29:06;4.40;;;3.40;;
846;SDS011;410;48.954;9.474;2023-04-24T12:31:09;3.70;;;3.10;;
846;SDS011;410;48.954;9.474;2023-04-24T12:33:12;5.70;;;3.13;;
846;SDS011;410;48.954;9.474;2023-04-24T12:35:18;5.90;;;3.27;;
846;SDS011;410;48.954;9.474;2023-04-24T12:37:22;4.57;;;3.53;;
846;SDS011;410;48.954;9.474;2023-04-24T12:39:28;4.33;;;3.73;;
846;SDS011;410;48.954;9.474;2023-04-24T12:41:31;5.67;;;3.53;;
846;SDS011;410;48.954;9.474;2023-04-24T12:43:34;5.53;;;3.73;;
846;SDS011;410;48.954;9.474;2023-04-24T12:45:37;4.63;;;3.70;;
846;SDS011;410;48.954;9.474;2023-04-24T12:47:40;5.00;;;3.73;;
846;SDS011;410;48.954;9.474;2023-04-24T12:49:44;7.80;;;3.97;;
846;SDS011;410;48.954;9.474;2023-04-24T12:51:47;3.60;;;3.20;;
846;SDS011;410;48.954;9.474;2023-04-24T12:53:50;5.40;;;3.90;;
846;SDS011;410;48.954;9.474;2023-04-24T12:55:58;3.60;;;3.07;;
846;SDS011;410;48.954;9.474;2023-04-24T12:58:01;4.10;;;3.27;;
846;SDS011;410;48.954;9.474;2023-04-24T13:00:06;3.50;;;2.57;;
846;SDS011;410;48.954;9.474;2023-04-24T13:02:10;6.83;;;2.60;;
846;SDS011;410;48.954;9.474;2023-04-24T13:04:13;3.80;;;2.70;;
846;SDS011;410;48.954;9.474;2023-04-24T13:06:18;3.90;;;2.77;;
846;SDS011;410;48.954;9.474;2023-04-24T13:08:22;3.27;;;2.87;;
846;SDS011;410;48.954;9.474;2023-04-24T13:10:25;5.23;;;3.23;;
846;SDS011;410;48.954;9.474;2023-04-24T13:12:30;4.30;;;2.70;;
846;SDS011;410;48.954;9.474;2023-04-24T13:14:33;3.80;;;3.40;;
846;SDS011;410;48.954;9.474;2023-04-24T13:16:36;3.60;;;3.03;;
846;SDS011;410;48.954;9.474;2023-04-24T13:18:39;4.63;;;2.93;;
846;SDS011;410;48.954;9.474;2023-04-24T13:20:42;7.13;;;3.80;;